sensor_id;sensor_type;location;lat;lon;timestamp;temperature;humidity
7518;DHT22;3800;48.922;9.444;2023-05-29T00:01:25;14.00;99.90
7518;DHT22;3800;48.922;9.444;2023-05-29T00:03:53;14.00;99.90
7518;DHT22;3800;48.922;9.444;2023-05-29T00:06:22;14.00;99.90
7518;DHT22;3800;48.922;9.444;2023-05-29T00:08:50;13.90;99.90
7518;DHT22;3800;48.922;9.444;2023-05-29T00:11:19;14.00;99.90
7518;DHT22;3800;48.922;9.444;2023-05-29T00:13:47;14.00;99.90
7518;DHT22;3800;48.922;9.444;2023-05-29T00:16:16;14.00;99.90
7518;DHT22;3800;48.922;9.444;2023-05-29T00:18:44;14.00;99.90
7518;DHT22;3800;48.922;9.444;2023-05-29T00:21:13;14.00;99.90
7518;DHT22;3800;48.922;9.444;2023-05-29T00:23:41;14.00;99.90
7518;DHT22;3800;48.922;9.444;2023-05-29T00:26:10;14.00;99.90
7518;DHT22;3800;48.922;9.444;2023-05-29T00:28:38;14.00;99.90
7518;DHT22;3800;48.922;9.444;2023-05-29T00:31:07;14.00;99.90
7518;DHT22;3800;48.922;9.444;2023-05-29T00:33:36;14.00;99.90
7518;DHT22;3800;48.922;9.444;2023-05-29T00:36:04;14.00;99.90
7518;DHT22;3800;48.922;9.444;2023-05-29T00:38:32;14.00;99.90
7518;DHT22;3800;48.922;9.444;2023-05-29T00:41:01;14.00;99.90
7518;DHT22;3800;48.922;9.444;2023-05-29T00:43:29;14.00;99.90
7518;DHT22;3800;48.922;9.444;2023-05-29T00:45:57;13.90;99.90
7518;DHT22;3800;48.922;9.444;2023-05-29T00:48:26;13.90;99.90
7518;DHT22;3800;48.922;9.444;2023-05-29T00:50:54;13.90;99.90
7518;DHT22;3800;48.922;9.444;2023-05-29T00:53:23;13.90;99.90
7518;DHT22;3800;48.922;9.444;2023-05-29T00:55:51;13.90;99.90
7518;DHT22;3800;48.922;9.444;2023-05-29T00:58:20;13.90;99.90
7518;DHT22;3800;48.922;9.444;2023-05-29T01:00:47;13.90;99.90
7518;DHT22;3800;48.922;9.444;2023-05-29T01:03:17;13.90;99.90
7518;DHT22;3800;48.922;9.444;2023-05-29T01:05:45;13.90;99.90
7518;DHT22;3800;48.922;9.444;2023-05-29T01:08:13;13.90;99.90
7518;DHT22;3800;48.922;9.444;2023-05-29T01:10:42;13.90;99.90
7518;DHT22;3800;48.922;9.444;2023-05-29T01:13:23;13.90;99.90
7518;DHT22;3800;48.922;9.444;2023-05-29T01:15:51;13.80;99.90
7518;DHT22;3800;48.922;9.444;2023-05-29T01:21:26;13.70;99.90
7518;DHT22;3800;48.922;9.444;2023-05-29T01:23:53;13.70;99.90
7518;DHT22;3800;48.922;9.444;2023-05-29T01:26:47;13.80;99.90
7518;DHT22;3800;48.922;9.444;2023-05-29T01:29:19;13.80;99.90
7518;DHT22;3800;48.922;9.444;2023-05-29T01:31:47;13.80;99.90
7518;DHT22;3800;48.922;9.444;2023-05-29T01:34:15;13.80;99.90
7518;DHT22;3800;48.922;9.444;2023-05-29T01:36:44;13.80;99.90
7518;DHT22;3800;48.922;9.444;2023-05-29T01:39:13;13.80;99.90
7518;DHT22;3800;48.922;9.444;2023-05-29T01:41:41;13.80;99.90
7518;DHT22;3800;48.922;9.444;2023-05-29T01:44:10;13.80;99.90
7518;DHT22;3800;48.922;9.444;2023-05-29T01:46:39;13.80;99.90
7518;DHT22;3800;48.922;9.444;2023-05-29T01:49:08;13.80;99.90
7518;DHT22;3800;48.922;9.444;2023-05-29T01:51:36;13.80;99.90
7518;DHT22;3800;48.922;9.444;2023-05-29T01:54:05;13.80;99.90
7518;DHT22;3800;48.922;9.444;2023-05-29T01:56:33;13.70;99.90
7518;DHT22;3800;48.922;9.444;2023-05-29T01:59:02;13.70;99.90
7518;DHT22;3800;48.922;9.444;2023-05-29T02:01:30;13.70;99.90
7518;DHT22;3800;48.922;9.444;2023-05-29T02:03:58;13.60;99.90
7518;DHT22;3800;48.922;9.444;2023-05-29T02:06:27;13.60;99.90
7518;DHT22;3800;48.922;9.444;2023-05-29T02:08:56;13.60;99.90
7518;DHT22;3800;48.922;9.444;2023-05-29T02:11:25;13.60;99.90
7518;DHT22;3800;48.922;9.444;2023-05-29T02:13:54;13.60;99.90
7518;DHT22;3800;48.922;9.444;2023-05-29T02:16:22;13.60;99.90
7518;DHT22;3800;48.922;9.444;2023-05-29T02:18:51;13.60;99.90
7518;DHT22;3800;48.922;9.444;2023-05-29T02:21:19;13.60;99.90
7518;DHT22;3800;48.922;9.444;2023-05-29T02:23:48;13.60;99.90
7518;DHT22;3800;48.922;9.444;2023-05-29T02:26:16;13.40;99.90
7518;DHT22;3800;48.922;9.444;2023-05-29T02:28:45;13.20;99.90
7518;DHT22;3800;48.922;9.444;2023-05-29T02:31:13;13.20;99.90
7518;DHT22;3800;48.922;9.444;2023-05-29T02:33:41;13.20;99.90
7518;DHT22;3800;48.922;9.444;2023-05-29T02:36:11;13.10;99.90
7518;DHT22;3800;48.922;9.444;2023-05-29T02:38:39;13.00;99.90
7518;DHT22;3800;48.922;9.444;2023-05-29T02:41:07;13.00;99.90
7518;DHT22;3800;48.922;9.444;2023-05-29T02:43:35;12.90;99.90
7518;DHT22;3800;48.922;9.444;2023-05-29T02:46:04;12.90;99.90
7518;DHT22;3800;48.922;9.444;2023-05-29T02:48:32;12.80;99.90
7518;DHT22;3800;48.922;9.444;2023-05-29T02:51:00;12.80;99.90
7518;DHT22;3800;48.922;9.444;2023-05-29T02:53:28;12.70;99.90
7518;DHT22;3800;48.922;9.444;2023-05-29T02:55:57;12.70;99.90
7518;DHT22;3800;48.922;9.444;2023-05-29T02:58:26;12.60;99.90
7518;DHT22;3800;48.922;9.444;2023-05-29T03:00:54;12.60;99.90
7518;DHT22;3800;48.922;9.444;2023-05-29T03:03:23;12.50;99.90
7518;DHT22;3800;48.922;9.444;2023-05-29T03:05:51;12.50;99.90
7518;DHT22;3800;48.922;9.444;2023-05-29T03:08:20;12.50;99.90
7518;DHT22;3800;48.922;9.444;2023-05-29T03:10:49;12.40;99.90
7518;DHT22;3800;48.922;9.444;2023-05-29T03:13:17;12.40;99.90
7518;DHT22;3800;48.922;9.444;2023-05-29T03:15:45;12.30;99.90
7518;DHT22;3800;48.922;9.444;2023-05-29T03:18:14;12.30;99.90
7518;DHT22;3800;48.922;9.444;2023-05-29T03:20:42;12.30;99.90
7518;DHT22;3800;48.922;9.444;2023-05-29T03:23:11;12.10;99.90
7518;DHT22;3800;48.922;9.444;2023-05-29T03:25:39;12.10;99.90
7518;DHT22;3800;48.922;9.444;2023-05-29T03:28:07;12.10;99.90
7518;DHT22;3800;48.922;9.444;2023-05-29T03:30:36;12.10;99.90
7518;DHT22;3800;48.922;9.444;2023-05-29T03:33:04;12.10;99.90
7518;DHT22;3800;48.922;9.444;2023-05-29T03:35:33;12.00;99.90
7518;DHT22;3800;48.922;9.444;2023-05-29T03:38:01;11.90;99.90
7518;DHT22;3800;48.922;9.444;2023-05-29T03:40:29;11.80;99.90
7518;DHT22;3800;48.922;9.444;2023-05-29T03:42:58;11.80;99.90
7518;DHT22;3800;48.922;9.444;2023-05-29T03:45:27;11.70;99.90
7518;DHT22;3800;48.922;9.444;2023-05-29T03:47:55;11.70;99.90
7518;DHT22;3800;48.922;9.444;2023-05-29T03:50:24;11.60;99.90
7518;DHT22;3800;48.922;9.444;2023-05-29T03:52:52;11.60;99.90
7518;DHT22;3800;48.922;9.444;2023-05-29T03:55:21;11.50;99.90
7518;DHT22;3800;48.922;9.444;2023-05-29T03:57:50;11.50;99.90
7518;DHT22;3800;48.922;9.444;2023-05-29T04:00:18;11.50;99.90
7518;DHT22;3800;48.922;9.444;2023-05-29T04:02:47;11.60;99.90
7518;DHT22;3800;48.922;9.444;2023-05-29T04:05:15;11.50;99.90
7518;DHT22;3800;48.922;9.444;2023-05-29T04:07:44;11.60;99.90
7518;DHT22;3800;48.922;9.444;2023-05-29T04:10:12;11.60;99.90
7518;DHT22;3800;48.922;9.444;2023-05-29T04:12:41;11.60;99.90
7518;DHT22;3800;48.922;9.444;2023-05-29T04:15:10;11.60;99.90
7518;DHT22;3800;48.922;9.444;2023-05-29T04:17:38;11.60;99.90
7518;DHT22;3800;48.922;9.444;2023-05-29T04:20:06;11.50;99.90
7518;DHT22;3800;48.922;9.444;2023-05-29T04:22:36;11.60;99.90
7518;DHT22;3800;48.922;9.444;2023-05-29T04:25:04;11.60;99.90
7518;DHT22;3800;48.922;9.444;2023-05-29T04:27:33;11.60;99.90
7518;DHT22;3800;48.922;9.444;2023-05-29T04:30:05;11.60;99.90
7518;DHT22;3800;48.922;9.444;2023-05-29T04:32:34;11.70;99.90
7518;DHT22;3800;48.922;9.444;2023-05-29T04:35:02;11.70;99.90
7518;DHT22;3800;48.922;9.444;2023-05-29T04:37:31;11.90;99.90
7518;DHT22;3800;48.922;9.444;2023-05-29T04:39:59;11.80;99.90
7518;DHT22;3800;48.922;9.444;2023-05-29T04:42:27;11.90;99.90
7518;DHT22;3800;48.922;9.444;2023-05-29T04:44:56;12.10;99.90
7518;DHT22;3800;48.922;9.444;2023-05-29T04:47:25;12.10;99.90
7518;DHT22;3800;48.922;9.444;2023-05-29T04:49:54;12.10;99.90
7518;DHT22;3800;48.922;9.444;2023-05-29T04:52:23;12.20;99.90
7518;DHT22;3800;48.922;9.444;2023-05-29T04:54:51;12.20;99.90
7518;DHT22;3800;48.922;9.444;2023-05-29T04:57:20;12.30;99.90
7518;DHT22;3800;48.922;9.444;2023-05-29T04:59:48;12.30;99.90
7518;DHT22;3800;48.922;9.444;2023-05-29T05:02:16;12.40;99.90
7518;DHT22;3800;48.922;9.444;2023-05-29T05:04:45;12.50;99.90
7518;DHT22;3800;48.922;9.444;2023-05-29T05:07:14;12.50;99.90
7518;DHT22;3800;48.922;9.444;2023-05-29T05:09:43;12.60;99.90
7518;DHT22;3800;48.922;9.444;2023-05-29T05:12:11;12.60;99.90
7518;DHT22;3800;48.922;9.444;2023-05-29T05:14:39;12.70;99.90
7518;DHT22;3800;48.922;9.444;2023-05-29T05:17:08;12.80;99.90
7518;DHT22;3800;48.922;9.444;2023-05-29T05:19:37;12.90;99.90
7518;DHT22;3800;48.922;9.444;2023-05-29T05:22:07;12.90;99.90
7518;DHT22;3800;48.922;9.444;2023-05-29T05:24:35;13.00;99.90
7518;DHT22;3800;48.922;9.444;2023-05-29T05:27:03;13.10;99.90
7518;DHT22;3800;48.922;9.444;2023-05-29T05:29:32;13.20;99.90
7518;DHT22;3800;48.922;9.444;2023-05-29T05:32:01;13.20;99.90
7518;DHT22;3800;48.922;9.444;2023-05-29T05:34:29;13.30;99.90
7518;DHT22;3800;48.922;9.444;2023-05-29T05:36:58;13.40;99.90
7518;DHT22;3800;48.922;9.444;2023-05-29T05:39:26;13.50;99.90
7518;DHT22;3800;48.922;9.444;2023-05-29T05:41:54;13.50;99.90
7518;DHT22;3800;48.922;9.444;2023-05-29T05:44:23;13.60;99.90
7518;DHT22;3800;48.922;9.444;2023-05-29T05:46:51;13.70;99.90
7518;DHT22;3800;48.922;9.444;2023-05-29T05:49:19;13.80;99.90
7518;DHT22;3800;48.922;9.444;2023-05-29T05:51:47;13.90;99.90
7518;DHT22;3800;48.922;9.444;2023-05-29T05:54:16;14.10;99.90
7518;DHT22;3800;48.922;9.444;2023-05-29T05:56:45;14.10;99.90
7518;DHT22;3800;48.922;9.444;2023-05-29T05:59:13;14.20;99.90
7518;DHT22;3800;48.922;9.444;2023-05-29T06:01:41;14.30;99.90
7518;DHT22;3800;48.922;9.444;2023-05-29T06:04:10;14.40;99.90
7518;DHT22;3800;48.922;9.444;2023-05-29T06:06:38;14.40;99.90
7518;DHT22;3800;48.922;9.444;2023-05-29T06:09:06;14.50;99.90
7518;DHT22;3800;48.922;9.444;2023-05-29T06:11:34;14.60;99.90
7518;DHT22;3800;48.922;9.444;2023-05-29T06:14:03;14.70;99.90
7518;DHT22;3800;48.922;9.444;2023-05-29T06:16:31;14.90;99.90
7518;DHT22;3800;48.922;9.444;2023-05-29T06:18:59;15.00;99.90
7518;DHT22;3800;48.922;9.444;2023-05-29T06:21:27;15.10;99.90
7518;DHT22;3800;48.922;9.444;2023-05-29T06:23:56;15.20;99.90
7518;DHT22;3800;48.922;9.444;2023-05-29T06:26:24;15.30;99.90
7518;DHT22;3800;48.922;9.444;2023-05-29T06:28:53;15.60;99.90
7518;DHT22;3800;48.922;9.444;2023-05-29T06:31:21;15.50;99.90
7518;DHT22;3800;48.922;9.444;2023-05-29T06:33:50;15.80;99.90
7518;DHT22;3800;48.922;9.444;2023-05-29T06:36:18;15.80;99.90
7518;DHT22;3800;48.922;9.444;2023-05-29T06:38:47;15.90;99.90
7518;DHT22;3800;48.922;9.444;2023-05-29T06:41:15;16.00;99.90
7518;DHT22;3800;48.922;9.444;2023-05-29T06:43:43;16.20;99.90
7518;DHT22;3800;48.922;9.444;2023-05-29T06:46:12;16.30;99.90
7518;DHT22;3800;48.922;9.444;2023-05-29T06:48:40;16.40;99.90
7518;DHT22;3800;48.922;9.444;2023-05-29T06:51:09;16.60;99.90
7518;DHT22;3800;48.922;9.444;2023-05-29T06:53:38;16.60;99.90
7518;DHT22;3800;48.922;9.444;2023-05-29T06:56:05;16.80;99.90
7518;DHT22;3800;48.922;9.444;2023-05-29T06:58:34;16.90;99.90
7518;DHT22;3800;48.922;9.444;2023-05-29T07:01:02;17.00;99.90
7518;DHT22;3800;48.922;9.444;2023-05-29T07:03:30;17.10;99.90
7518;DHT22;3800;48.922;9.444;2023-05-29T07:05:58;17.20;99.90
7518;DHT22;3800;48.922;9.444;2023-05-29T07:08:27;17.30;99.90
7518;DHT22;3800;48.922;9.444;2023-05-29T07:10:55;17.40;99.90
7518;DHT22;3800;48.922;9.444;2023-05-29T07:13:24;17.50;99.90
7518;DHT22;3800;48.922;9.444;2023-05-29T07:15:51;17.60;99.90
7518;DHT22;3800;48.922;9.444;2023-05-29T07:18:20;17.80;99.90
7518;DHT22;3800;48.922;9.444;2023-05-29T07:20:48;17.90;99.90
7518;DHT22;3800;48.922;9.444;2023-05-29T07:23:17;18.20;99.90
7518;DHT22;3800;48.922;9.444;2023-05-29T07:25:45;18.20;99.90
7518;DHT22;3800;48.922;9.444;2023-05-29T07:28:14;18.50;99.90
7518;DHT22;3800;48.922;9.444;2023-05-29T07:30:43;18.50;99.90
7518;DHT22;3800;48.922;9.444;2023-05-29T07:33:11;18.70;99.90
7518;DHT22;3800;48.922;9.444;2023-05-29T07:35:39;18.90;99.90
7518;DHT22;3800;48.922;9.444;2023-05-29T07:38:07;19.00;99.90
7518;DHT22;3800;48.922;9.444;2023-05-29T07:40:36;19.10;99.90
7518;DHT22;3800;48.922;9.444;2023-05-29T07:43:04;19.30;99.90
7518;DHT22;3800;48.922;9.444;2023-05-29T07:45:33;19.60;99.90
7518;DHT22;3800;48.922;9.444;2023-05-29T07:48:01;19.60;99.90
7518;DHT22;3800;48.922;9.444;2023-05-29T07:50:30;19.80;99.90
7518;DHT22;3800;48.922;9.444;2023-05-29T07:52:59;19.80;99.90
7518;DHT22;3800;48.922;9.444;2023-05-29T07:55:27;19.90;99.90
7518;DHT22;3800;48.922;9.444;2023-05-29T07:57:56;20.10;99.90
7518;DHT22;3800;48.922;9.444;2023-05-29T08:00:24;20.10;99.90
7518;DHT22;3800;48.922;9.444;2023-05-29T08:02:54;20.40;99.90
7518;DHT22;3800;48.922;9.444;2023-05-29T08:05:22;20.40;99.90
7518;DHT22;3800;48.922;9.444;2023-05-29T08:07:51;20.70;99.90
7518;DHT22;3800;48.922;9.444;2023-05-29T08:10:19;20.70;99.90
7518;DHT22;3800;48.922;9.444;2023-05-29T08:12:48;20.90;99.90
7518;DHT22;3800;48.922;9.444;2023-05-29T08:15:16;21.00;99.90
7518;DHT22;3800;48.922;9.444;2023-05-29T08:17:44;21.10;99.90
7518;DHT22;3800;48.922;9.444;2023-05-29T08:20:12;21.20;99.90
7518;DHT22;3800;48.922;9.444;2023-05-29T08:22:41;21.40;99.90
7518;DHT22;3800;48.922;9.444;2023-05-29T08:25:10;21.40;99.90
7518;DHT22;3800;48.922;9.444;2023-05-29T08:27:39;21.70;99.90
7518;DHT22;3800;48.922;9.444;2023-05-29T08:30:07;21.70;99.90
7518;DHT22;3800;48.922;9.444;2023-05-29T08:32:37;21.80;99.90
7518;DHT22;3800;48.922;9.444;2023-05-29T08:35:05;21.90;99.90
7518;DHT22;3800;48.922;9.444;2023-05-29T08:37:34;22.00;99.90
7518;DHT22;3800;48.922;9.444;2023-05-29T08:40:02;22.00;99.90
7518;DHT22;3800;48.922;9.444;2023-05-29T08:42:32;22.20;99.80
7518;DHT22;3800;48.922;9.444;2023-05-29T08:45:01;22.20;99.80
7518;DHT22;3800;48.922;9.444;2023-05-29T08:47:28;22.30;99.90
7518;DHT22;3800;48.922;9.444;2023-05-29T08:49:56;22.30;98.50
7518;DHT22;3800;48.922;9.444;2023-05-29T08:52:25;22.40;99.70
7518;DHT22;3800;48.922;9.444;2023-05-29T08:54:53;22.40;99.20
7518;DHT22;3800;48.922;9.444;2023-05-29T08:57:21;22.50;98.10
7518;DHT22;3800;48.922;9.444;2023-05-29T08:59:51;22.50;97.80
7518;DHT22;3800;48.922;9.444;2023-05-29T09:02:18;22.50;97.80
7518;DHT22;3800;48.922;9.444;2023-05-29T09:04:47;22.60;97.90
7518;DHT22;3800;48.922;9.444;2023-05-29T09:07:18;22.60;97.50
7518;DHT22;3800;48.922;9.444;2023-05-29T09:09:46;22.60;97.50
7518;DHT22;3800;48.922;9.444;2023-05-29T09:12:14;22.80;97.60
7518;DHT22;3800;48.922;9.444;2023-05-29T09:14:43;22.90;96.80
7518;DHT22;3800;48.922;9.444;2023-05-29T09:17:12;22.90;96.60
7518;DHT22;3800;48.922;9.444;2023-05-29T09:19:39;22.90;96.00
7518;DHT22;3800;48.922;9.444;2023-05-29T09:22:09;23.00;96.30
7518;DHT22;3800;48.922;9.444;2023-05-29T09:24:38;23.00;96.50
7518;DHT22;3800;48.922;9.444;2023-05-29T09:27:06;23.10;97.00
7518;DHT22;3800;48.922;9.444;2023-05-29T09:29:38;23.30;96.40
7518;DHT22;3800;48.922;9.444;2023-05-29T09:32:08;23.20;96.40
7518;DHT22;3800;48.922;9.444;2023-05-29T09:34:36;23.30;97.10
7518;DHT22;3800;48.922;9.444;2023-05-29T09:37:06;23.40;96.60
7518;DHT22;3800;48.922;9.444;2023-05-29T09:39:50;23.40;96.70
7518;DHT22;3800;48.922;9.444;2023-05-29T09:42:19;23.40;95.90
7518;DHT22;3800;48.922;9.444;2023-05-29T09:44:49;23.40;95.60
7518;DHT22;3800;48.922;9.444;2023-05-29T09:47:20;23.40;96.90
7518;DHT22;3800;48.922;9.444;2023-05-29T09:49:48;23.40;96.90
7518;DHT22;3800;48.922;9.444;2023-05-29T09:52:20;23.50;96.70
7518;DHT22;3800;48.922;9.444;2023-05-29T09:54:47;23.40;95.80
7518;DHT22;3800;48.922;9.444;2023-05-29T09:57:16;23.50;96.20
7518;DHT22;3800;48.922;9.444;2023-05-29T09:59:45;23.50;96.00
7518;DHT22;3800;48.922;9.444;2023-05-29T10:02:13;23.50;96.00
7518;DHT22;3800;48.922;9.444;2023-05-29T10:04:42;23.60;95.40
7518;DHT22;3800;48.922;9.444;2023-05-29T10:07:26;23.60;95.40
7518;DHT22;3800;48.922;9.444;2023-05-29T10:09:59;23.60;95.90
7518;DHT22;3800;48.922;9.444;2023-05-29T10:12:27;23.60;94.80
7518;DHT22;3800;48.922;9.444;2023-05-29T10:14:57;23.60;94.60
7518;DHT22;3800;48.922;9.444;2023-05-29T10:17:25;23.50;94.60
7518;DHT22;3800;48.922;9.444;2023-05-29T10:19:53;23.60;94.60
7518;DHT22;3800;48.922;9.444;2023-05-29T10:22:21;23.60;93.80
7518;DHT22;3800;48.922;9.444;2023-05-29T10:24:50;23.50;93.10
7518;DHT22;3800;48.922;9.444;2023-05-29T10:27:19;23.40;93.10
7518;DHT22;3800;48.922;9.444;2023-05-29T10:29:50;23.40;93.80
7518;DHT22;3800;48.922;9.444;2023-05-29T10:32:43;23.40;93.80
7518;DHT22;3800;48.922;9.444;2023-05-29T10:35:46;23.50;93.80
7518;DHT22;3800;48.922;9.444;2023-05-29T10:38:15;23.50;93.20
7518;DHT22;3800;48.922;9.444;2023-05-29T10:40:45;23.50;94.10
7518;DHT22;3800;48.922;9.444;2023-05-29T10:45:56;23.50;93.20
7518;DHT22;3800;48.922;9.444;2023-05-29T10:48:39;23.50;93.20
7518;DHT22;3800;48.922;9.444;2023-05-29T10:51:08;23.50;92.30
7518;DHT22;3800;48.922;9.444;2023-05-29T10:53:35;23.50;92.00
7518;DHT22;3800;48.922;9.444;2023-05-29T10:56:04;23.50;92.70
7518;DHT22;3800;48.922;9.444;2023-05-29T10:58:32;23.50;93.20
7518;DHT22;3800;48.922;9.444;2023-05-29T11:01:00;23.50;92.10
7518;DHT22;3800;48.922;9.444;2023-05-29T11:03:29;23.50;93.00
7518;DHT22;3800;48.922;9.444;2023-05-29T11:06:04;23.60;92.60
7518;DHT22;3800;48.922;9.444;2023-05-29T11:08:35;23.50;91.30
7518;DHT22;3800;48.922;9.444;2023-05-29T11:11:30;23.50;92.70
7518;DHT22;3800;48.922;9.444;2023-05-29T11:14:01;23.60;92.70
7518;DHT22;3800;48.922;9.444;2023-05-29T11:16:37;23.60;91.90
7518;DHT22;3800;48.922;9.444;2023-05-29T11:19:07;23.60;92.30
7518;DHT22;3800;48.922;9.444;2023-05-29T11:21:53;23.70;91.20
7518;DHT22;3800;48.922;9.444;2023-05-29T11:24:27;23.70;90.90
7518;DHT22;3800;48.922;9.444;2023-05-29T11:26:56;23.70;90.70
7518;DHT22;3800;48.922;9.444;2023-05-29T11:29:23;23.50;90.00
7518;DHT22;3800;48.922;9.444;2023-05-29T11:31:59;23.60;91.00
7518;DHT22;3800;48.922;9.444;2023-05-29T11:34:27;23.50;91.40
7518;DHT22;3800;48.922;9.444;2023-05-29T11:36:58;23.80;92.20
7518;DHT22;3800;48.922;9.444;2023-05-29T11:39:26;23.80;92.20
7518;DHT22;3800;48.922;9.444;2023-05-29T11:41:54;23.90;91.90
7518;DHT22;3800;48.922;9.444;2023-05-29T11:44:24;23.90;90.50
7518;DHT22;3800;48.922;9.444;2023-05-29T11:47:00;23.90;90.60
7518;DHT22;3800;48.922;9.444;2023-05-29T11:49:35;24.00;90.50
7518;DHT22;3800;48.922;9.444;2023-05-29T11:52:09;24.00;91.30
7518;DHT22;3800;48.922;9.444;2023-05-29T11:54:37;24.10;91.30
7518;DHT22;3800;48.922;9.444;2023-05-29T11:57:06;24.00;91.00
7518;DHT22;3800;48.922;9.444;2023-05-29T11:59:34;24.10;90.20
7518;DHT22;3800;48.922;9.444;2023-05-29T12:02:02;24.30;90.70
7518;DHT22;3800;48.922;9.444;2023-05-29T12:04:31;24.50;90.00
7518;DHT22;3800;48.922;9.444;2023-05-29T12:06:59;24.40;89.80
7518;DHT22;3800;48.922;9.444;2023-05-29T12:09:28;24.50;89.90
7518;DHT22;3800;48.922;9.444;2023-05-29T12:12:02;24.50;90.10
7518;DHT22;3800;48.922;9.444;2023-05-29T12:14:31;24.50;89.50
7518;DHT22;3800;48.922;9.444;2023-05-29T12:16:59;24.50;90.10
7518;DHT22;3800;48.922;9.444;2023-05-29T12:19:28;24.60;88.70
7518;DHT22;3800;48.922;9.444;2023-05-29T12:21:56;24.50;88.60
7518;DHT22;3800;48.922;9.444;2023-05-29T12:24:24;24.50;88.30
7518;DHT22;3800;48.922;9.444;2023-05-29T12:26:53;24.60;88.90
7518;DHT22;3800;48.922;9.444;2023-05-29T12:29:29;24.50;89.10
7518;DHT22;3800;48.922;9.444;2023-05-29T12:31:57;24.60;87.50
7518;DHT22;3800;48.922;9.444;2023-05-29T12:34:17;24.60;88.70
7518;DHT22;3800;48.922;9.444;2023-05-29T12:36:46;24.60;89.80
7518;DHT22;3800;48.922;9.444;2023-05-29T12:39:14;24.70;88.70
7518;DHT22;3800;48.922;9.444;2023-05-29T12:41:42;24.70;85.80
7518;DHT22;3800;48.922;9.444;2023-05-29T12:44:10;24.60;88.10
7518;DHT22;3800;48.922;9.444;2023-05-29T12:46:40;24.60;88.10
7518;DHT22;3800;48.922;9.444;2023-05-29T12:49:12;24.60;89.90
7518;DHT22;3800;48.922;9.444;2023-05-29T12:51:40;24.50;88.60
7518;DHT22;3800;48.922;9.444;2023-05-29T12:54:09;24.50;86.60
7518;DHT22;3800;48.922;9.444;2023-05-29T12:56:38;24.50;87.80
7518;DHT22;3800;48.922;9.444;2023-05-29T12:59:07;24.50;87.80
7518;DHT22;3800;48.922;9.444;2023-05-29T13:01:36;24.50;88.10
7518;DHT22;3800;48.922;9.444;2023-05-29T13:04:05;24.50;87.20
7518;DHT22;3800;48.922;9.444;2023-05-29T13:06:34;24.50;86.70
7518;DHT22;3800;48.922;9.444;2023-05-29T13:09:02;24.50;86.70
7518;DHT22;3800;48.922;9.444;2023-05-29T13:11:31;24.50;87.60
7518;DHT22;3800;48.922;9.444;2023-05-29T13:13:59;24.50;84.40
7518;DHT22;3800;48.922;9.444;2023-05-29T13:16:27;24.70;86.70
7518;DHT22;3800;48.922;9.444;2023-05-29T13:18:55;24.70;89.60
7518;DHT22;3800;48.922;9.444;2023-05-29T13:21:24;24.70;87.30
7518;DHT22;3800;48.922;9.444;2023-05-29T13:23:52;24.80;88.10
7518;DHT22;3800;48.922;9.444;2023-05-29T13:26:20;24.90;86.20
7518;DHT22;3800;48.922;9.444;2023-05-29T13:28:50;25.00;86.40
7518;DHT22;3800;48.922;9.444;2023-05-29T13:31:17;25.00;86.40
7518;DHT22;3800;48.922;9.444;2023-05-29T13:33:46;25.20;88.10
7518;DHT22;3800;48.922;9.444;2023-05-29T13:36:15;25.20;88.00
7518;DHT22;3800;48.922;9.444;2023-05-29T13:38:44;25.50;88.00
7518;DHT22;3800;48.922;9.444;2023-05-29T13:41:12;25.50;87.80
7518;DHT22;3800;48.922;9.444;2023-05-29T13:43:40;25.50;85.20
7518;DHT22;3800;48.922;9.444;2023-05-29T13:46:10;25.60;86.50
7518;DHT22;3800;48.922;9.444;2023-05-29T13:48:38;25.50;86.40
7518;DHT22;3800;48.922;9.444;2023-05-29T13:51:06;25.50;86.00
7518;DHT22;3800;48.922;9.444;2023-05-29T13:53:35;25.60;86.70
7518;DHT22;3800;48.922;9.444;2023-05-29T13:56:03;25.50;86.40
7518;DHT22;3800;48.922;9.444;2023-05-29T13:58:31;25.60;86.20
7518;DHT22;3800;48.922;9.444;2023-05-29T14:01:00;25.60;86.40
7518;DHT22;3800;48.922;9.444;2023-05-29T14:03:29;25.60;85.60
7518;DHT22;3800;48.922;9.444;2023-05-29T14:05:57;25.60;85.60
7518;DHT22;3800;48.922;9.444;2023-05-29T14:08:26;25.70;85.80
7518;DHT22;3800;48.922;9.444;2023-05-29T14:10:54;25.70;85.80
7518;DHT22;3800;48.922;9.444;2023-05-29T14:13:23;25.80;87.80
7518;DHT22;3800;48.922;9.444;2023-05-29T14:15:52;25.80;87.80
7518;DHT22;3800;48.922;9.444;2023-05-29T14:18:20;25.80;88.80
7518;DHT22;3800;48.922;9.444;2023-05-29T14:20:48;25.90;88.40
7518;DHT22;3800;48.922;9.444;2023-05-29T14:23:16;25.90;87.20
7518;DHT22;3800;48.922;9.444;2023-05-29T14:25:45;26.00;90.10
7518;DHT22;3800;48.922;9.444;2023-05-29T14:28:13;26.00;88.50
7518;DHT22;3800;48.922;9.444;2023-05-29T14:30:41;26.10;89.10
7518;DHT22;3800;48.922;9.444;2023-05-29T14:33:10;26.00;87.20
7518;DHT22;3800;48.922;9.444;2023-05-29T14:35:38;26.00;87.20
7518;DHT22;3800;48.922;9.444;2023-05-29T14:38:07;26.00;87.80
7518;DHT22;3800;48.922;9.444;2023-05-29T14:40:35;26.00;88.40
7518;DHT22;3800;48.922;9.444;2023-05-29T14:43:03;26.00;88.00
7518;DHT22;3800;48.922;9.444;2023-05-29T14:45:31;26.00;84.70
7518;DHT22;3800;48.922;9.444;2023-05-29T14:48:00;25.90;85.40
7518;DHT22;3800;48.922;9.444;2023-05-29T14:50:28;25.90;86.30
7518;DHT22;3800;48.922;9.444;2023-05-29T14:52:56;25.90;85.50
7518;DHT22;3800;48.922;9.444;2023-05-29T14:55:24;26.00;87.20
7518;DHT22;3800;48.922;9.444;2023-05-29T14:57:53;26.00;87.90
7518;DHT22;3800;48.922;9.444;2023-05-29T15:00:21;26.00;87.30
7518;DHT22;3800;48.922;9.444;2023-05-29T15:02:49;26.00;87.60
7518;DHT22;3800;48.922;9.444;2023-05-29T15:05:18;26.00;87.70
7518;DHT22;3800;48.922;9.444;2023-05-29T15:07:46;25.90;86.80
7518;DHT22;3800;48.922;9.444;2023-05-29T15:10:14;25.80;83.90
7518;DHT22;3800;48.922;9.444;2023-05-29T15:12:42;25.70;83.30
7518;DHT22;3800;48.922;9.444;2023-05-29T15:15:11;25.60;86.50
7518;DHT22;3800;48.922;9.444;2023-05-29T15:17:43;25.60;86.10
7518;DHT22;3800;48.922;9.444;2023-05-29T15:20:12;25.50;86.00
7518;DHT22;3800;48.922;9.444;2023-05-29T15:22:40;25.50;86.50
7518;DHT22;3800;48.922;9.444;2023-05-29T15:25:08;25.40;86.40
7518;DHT22;3800;48.922;9.444;2023-05-29T15:27:37;25.40;84.10
7518;DHT22;3800;48.922;9.444;2023-05-29T15:30:12;25.30;83.90
7518;DHT22;3800;48.922;9.444;2023-05-29T15:32:42;25.30;82.20
7518;DHT22;3800;48.922;9.444;2023-05-29T15:35:10;25.30;82.20
7518;DHT22;3800;48.922;9.444;2023-05-29T15:37:39;25.20;82.30
7518;DHT22;3800;48.922;9.444;2023-05-29T15:40:07;25.20;82.30
7518;DHT22;3800;48.922;9.444;2023-05-29T15:42:36;25.10;85.00
7518;DHT22;3800;48.922;9.444;2023-05-29T15:45:04;25.10;82.50
7518;DHT22;3800;48.922;9.444;2023-05-29T15:47:33;25.10;84.90
7518;DHT22;3800;48.922;9.444;2023-05-29T15:50:01;25.10;83.50
7518;DHT22;3800;48.922;9.444;2023-05-29T15:52:30;25.00;83.90
7518;DHT22;3800;48.922;9.444;2023-05-29T15:54:58;25.00;85.70
7518;DHT22;3800;48.922;9.444;2023-05-29T15:57:26;25.00;85.40
7518;DHT22;3800;48.922;9.444;2023-05-29T15:59:54;25.00;85.80
7518;DHT22;3800;48.922;9.444;2023-05-29T16:02:23;25.00;86.80
7518;DHT22;3800;48.922;9.444;2023-05-29T16:04:51;25.00;83.60
7518;DHT22;3800;48.922;9.444;2023-05-29T16:07:20;24.90;84.10
7518;DHT22;3800;48.922;9.444;2023-05-29T16:09:48;24.90;83.40
7518;DHT22;3800;48.922;9.444;2023-05-29T16:12:17;24.90;84.40
7518;DHT22;3800;48.922;9.444;2023-05-29T16:14:45;24.90;84.40
7518;DHT22;3800;48.922;9.444;2023-05-29T16:17:14;24.90;86.30
7518;DHT22;3800;48.922;9.444;2023-05-29T16:19:43;24.90;85.50